sensor_id;sensor_type;location;lat;lon;timestamp;P1;durP1;ratioP1;P2;durP2;ratioP2
5499;SDS011;2772;42.700;23.304;2024-02-26T00:01:02;48.73;;;28.17;;
5499;SDS011;2772;42.700;23.304;2024-02-26T00:03:30;48.13;;;27.80;;
5499;SDS011;2772;42.700;23.304;2024-02-26T00:05:59;60.10;;;28.87;;
5499;SDS011;2772;42.700;23.304;2024-02-26T00:08:26;56.13;;;29.00;;
5499;SDS011;2772;42.700;23.304;2024-02-26T00:10:53;51.13;;;28.97;;
5499;SDS011;2772;42.700;23.304;2024-02-26T00:13:20;48.63;;;27.70;;
5499;SDS011;2772;42.700;23.304;2024-02-26T00:15:47;59.90;;;28.63;;
5499;SDS011;2772;42.700;23.304;2024-02-26T00:18:14;47.20;;;27.50;;
5499;SDS011;2772;42.700;23.304;2024-02-26T00:20:40;38.03;;;22.40;;
5499;SDS011;2772;42.700;23.304;2024-02-26T00:23:09;37.10;;;21.07;;
5499;SDS011;2772;42.700;23.304;2024-02-26T00:25:36;37.60;;;21.60;;
5499;SDS011;2772;42.700;23.304;2024-02-26T00:28:04;31.23;;;20.17;;
5499;SDS011;2772;42.700;23.304;2024-02-26T00:30:31;39.97;;;21.17;;
5499;SDS011;2772;42.700;23.304;2024-02-26T00:32:59;31.77;;;18.40;;
5499;SDS011;2772;42.700;23.304;2024-02-26T00:35:26;34.13;;;19.87;;
5499;SDS011;2772;42.700;23.304;2024-02-26T00:37:52;45.93;;;23.50;;
5499;SDS011;2772;42.700;23.304;2024-02-26T00:40:20;33.10;;;21.80;;
5499;SDS011;2772;42.700;23.304;2024-02-26T00:42:47;39.50;;;21.70;;
5499;SDS011;2772;42.700;23.304;2024-02-26T00:45:14;30.73;;;19.10;;
5499;SDS011;2772;42.700;23.304;2024-02-26T00:47:41;35.97;;;21.50;;
5499;SDS011;2772;42.700;23.304;2024-02-26T00:50:09;34.83;;;20.03;;
5499;SDS011;2772;42.700;23.304;2024-02-26T00:52:36;37.07;;;20.17;;
5499;SDS011;2772;42.700;23.304;2024-02-26T00:55:03;38.10;;;21.27;;
5499;SDS011;2772;42.700;23.304;2024-02-26T00:57:32;39.63;;;22.33;;
5499;SDS011;2772;42.700;23.304;2024-02-26T00:59:59;41.90;;;21.20;;
5499;SDS011;2772;42.700;23.304;2024-02-26T01:02:26;34.73;;;21.10;;
5499;SDS011;2772;42.700;23.304;2024-02-26T01:04:52;37.03;;;21.93;;
5499;SDS011;2772;42.700;23.304;2024-02-26T01:07:19;33.87;;;21.00;;
5499;SDS011;2772;42.700;23.304;2024-02-26T01:09:46;34.20;;;22.30;;
5499;SDS011;2772;42.700;23.304;2024-02-26T01:12:13;36.13;;;21.03;;
5499;SDS011;2772;42.700;23.304;2024-02-26T01:14:41;52.90;;;23.83;;
5499;SDS011;2772;42.700;23.304;2024-02-26T01:17:07;38.33;;;22.77;;
5499;SDS011;2772;42.700;23.304;2024-02-26T01:19:34;39.10;;;22.80;;
5499;SDS011;2772;42.700;23.304;2024-02-26T01:22:01;43.77;;;26.30;;
5499;SDS011;2772;42.700;23.304;2024-02-26T01:24:29;46.60;;;26.20;;
5499;SDS011;2772;42.700;23.304;2024-02-26T01:26:55;48.07;;;27.47;;
5499;SDS011;2772;42.700;23.304;2024-02-26T01:29:22;48.10;;;26.87;;
5499;SDS011;2772;42.700;23.304;2024-02-26T01:31:50;44.17;;;27.00;;
5499;SDS011;2772;42.700;23.304;2024-02-26T01:34:17;49.87;;;27.30;;
5499;SDS011;2772;42.700;23.304;2024-02-26T01:36:44;43.27;;;25.60;;
5499;SDS011;2772;42.700;23.304;2024-02-26T01:39:11;43.23;;;24.50;;
5499;SDS011;2772;42.700;23.304;2024-02-26T01:41:37;63.53;;;26.53;;
5499;SDS011;2772;42.700;23.304;2024-02-26T01:44:04;43.63;;;23.87;;
5499;SDS011;2772;42.700;23.304;2024-02-26T01:46:31;41.33;;;23.43;;
5499;SDS011;2772;42.700;23.304;2024-02-26T01:49:02;43.63;;;24.90;;
5499;SDS011;2772;42.700;23.304;2024-02-26T01:51:29;39.03;;;23.87;;
5499;SDS011;2772;42.700;23.304;2024-02-26T01:53:58;38.93;;;23.63;;
5499;SDS011;2772;42.700;23.304;2024-02-26T01:56:26;43.73;;;23.70;;
5499;SDS011;2772;42.700;23.304;2024-02-26T01:58:56;38.00;;;22.30;;
5499;SDS011;2772;42.700;23.304;2024-02-26T02:01:24;41.33;;;23.63;;
5499;SDS011;2772;42.700;23.304;2024-02-26T02:03:52;37.93;;;23.13;;
5499;SDS011;2772;42.700;23.304;2024-02-26T02:06:21;42.63;;;25.43;;
5499;SDS011;2772;42.700;23.304;2024-02-26T02:08:47;40.97;;;22.57;;
5499;SDS011;2772;42.700;23.304;2024-02-26T02:11:15;38.80;;;22.80;;
5499;SDS011;2772;42.700;23.304;2024-02-26T02:13:43;39.10;;;22.77;;
5499;SDS011;2772;42.700;23.304;2024-02-26T02:16:09;47.27;;;23.77;;
5499;SDS011;2772;42.700;23.304;2024-02-26T02:18:36;34.83;;;22.47;;
5499;SDS011;2772;42.700;23.304;2024-02-26T02:21:04;36.77;;;23.23;;
5499;SDS011;2772;42.700;23.304;2024-02-26T02:23:31;41.17;;;22.57;;
5499;SDS011;2772;42.700;23.304;2024-02-26T02:25:58;35.77;;;21.87;;
5499;SDS011;2772;42.700;23.304;2024-02-26T02:28:25;39.63;;;22.80;;
5499;SDS011;2772;42.700;23.304;2024-02-26T02:30:53;39.10;;;24.03;;
5499;SDS011;2772;42.700;23.304;2024-02-26T02:33:21;41.13;;;24.17;;
5499;SDS011;2772;42.700;23.304;2024-02-26T02:35:48;46.13;;;24.30;;
5499;SDS011;2772;42.700;23.304;2024-02-26T02:38:17;57.43;;;25.40;;
5499;SDS011;2772;42.700;23.304;2024-02-26T02:40:44;43.03;;;24.70;;
5499;SDS011;2772;42.700;23.304;2024-02-26T02:43:10;45.27;;;25.43;;
5499;SDS011;2772;42.700;23.304;2024-02-26T02:45:37;46.57;;;25.60;;
5499;SDS011;2772;42.700;23.304;2024-02-26T02:48:04;41.63;;;23.40;;
5499;SDS011;2772;42.700;23.304;2024-02-26T02:50:31;45.40;;;24.20;;
5499;SDS011;2772;42.700;23.304;2024-02-26T02:52:57;46.20;;;23.80;;
5499;SDS011;2772;42.700;23.304;2024-02-26T02:55:27;55.60;;;25.60;;
5499;SDS011;2772;42.700;23.304;2024-02-26T02:57:53;42.47;;;23.53;;
5499;SDS011;2772;42.700;23.304;2024-02-26T03:00:20;37.87;;;22.33;;
5499;SDS011;2772;42.700;23.304;2024-02-26T03:02:48;44.03;;;23.13;;
5499;SDS011;2772;42.700;23.304;2024-02-26T03:05:14;38.63;;;22.03;;
5499;SDS011;2772;42.700;23.304;2024-02-26T03:07:41;40.73;;;23.13;;
5499;SDS011;2772;42.700;23.304;2024-02-26T03:10:08;49.17;;;22.80;;
5499;SDS011;2772;42.700;23.304;2024-02-26T03:12:37;45.80;;;25.10;;
5499;SDS011;2772;42.700;23.304;2024-02-26T03:15:04;41.77;;;23.20;;
5499;SDS011;2772;42.700;23.304;2024-02-26T03:17:31;46.70;;;25.17;;
5499;SDS011;2772;42.700;23.304;2024-02-26T03:19:57;42.57;;;24.73;;
5499;SDS011;2772;42.700;23.304;2024-02-26T03:22:24;46.23;;;24.57;;
5499;SDS011;2772;42.700;23.304;2024-02-26T03:24:51;41.63;;;24.63;;
5499;SDS011;2772;42.700;23.304;2024-02-26T03:27:17;42.43;;;25.10;;
5499;SDS011;2772;42.700;23.304;2024-02-26T03:29:45;40.70;;;25.20;;
5499;SDS011;2772;42.700;23.304;2024-02-26T03:32:13;42.50;;;24.80;;
5499;SDS011;2772;42.700;23.304;2024-02-26T03:34:39;43.60;;;25.03;;
5499;SDS011;2772;42.700;23.304;2024-02-26T03:37:06;41.57;;;25.03;;
5499;SDS011;2772;42.700;23.304;2024-02-26T03:39:35;41.90;;;24.33;;
5499;SDS011;2772;42.700;23.304;2024-02-26T03:42:02;41.40;;;24.97;;
5499;SDS011;2772;42.700;23.304;2024-02-26T03:44:29;38.70;;;22.40;;
5499;SDS011;2772;42.700;23.304;2024-02-26T03:46:57;37.70;;;21.97;;
5499;SDS011;2772;42.700;23.304;2024-02-26T03:49:24;40.17;;;21.87;;
5499;SDS011;2772;42.700;23.304;2024-02-26T03:51:51;42.80;;;23.30;;
5499;SDS011;2772;42.700;23.304;2024-02-26T03:54:17;38.23;;;21.73;;
5499;SDS011;2772;42.700;23.304;2024-02-26T03:56:44;38.20;;;22.60;;
5499;SDS011;2772;42.700;23.304;2024-02-26T03:59:11;38.77;;;21.97;;
5499;SDS011;2772;42.700;23.304;2024-02-26T04:01:37;33.77;;;20.97;;
5499;SDS011;2772;42.700;23.304;2024-02-26T04:04:06;35.87;;;21.20;;
5499;SDS011;2772;42.700;23.304;2024-02-26T04:06:32;35.00;;;19.90;;
5499;SDS011;2772;42.700;23.304;2024-02-26T04:08:59;31.27;;;19.90;;
5499;SDS011;2772;42.700;23.304;2024-02-26T04:11:28;34.13;;;19.63;;
5499;SDS011;2772;42.700;23.304;2024-02-26T04:13:55;37.47;;;20.47;;
5499;SDS011;2772;42.700;23.304;2024-02-26T04:16:22;36.00;;;20.80;;
5499;SDS011;2772;42.700;23.304;2024-02-26T04:18:49;34.77;;;21.10;;
5499;SDS011;2772;42.700;23.304;2024-02-26T04:21:17;38.83;;;21.10;;
5499;SDS011;2772;42.700;23.304;2024-02-26T04:23:43;33.93;;;21.13;;
5499;SDS011;2772;42.700;23.304;2024-02-26T04:26:10;39.43;;;20.80;;
5499;SDS011;2772;42.700;23.304;2024-02-26T04:28:37;36.77;;;22.37;;
5499;SDS011;2772;42.700;23.304;2024-02-26T04:31:03;41.87;;;21.43;;
5499;SDS011;2772;42.700;23.304;2024-02-26T04:33:33;43.13;;;23.23;;
5499;SDS011;2772;42.700;23.304;2024-02-26T04:36:00;38.87;;;22.37;;
5499;SDS011;2772;42.700;23.304;2024-02-26T04:38:29;36.30;;;22.07;;
5499;SDS011;2772;42.700;23.304;2024-02-26T04:40:56;37.77;;;23.07;;
5499;SDS011;2772;42.700;23.304;2024-02-26T04:43:22;38.93;;;22.13;;
5499;SDS011;2772;42.700;23.304;2024-02-26T04:45:49;37.60;;;22.60;;
5499;SDS011;2772;42.700;23.304;2024-02-26T04:48:16;42.93;;;22.73;;
5499;SDS011;2772;42.700;23.304;2024-02-26T04:50:43;39.47;;;24.98;;
5499;SDS011;2772;42.700;23.304;2024-02-26T04:53:10;44.30;;;23.47;;
5499;SDS011;2772;42.700;23.304;2024-02-26T04:55:38;38.80;;;23.53;;
5499;SDS011;2772;42.700;23.304;2024-02-26T04:58:05;45.20;;;24.23;;
5499;SDS011;2772;42.700;23.304;2024-02-26T05:00:32;38.23;;;24.17;;
5499;SDS011;2772;42.700;23.304;2024-02-26T05:02:57;39.00;;;23.67;;
5499;SDS011;2772;42.700;23.304;2024-02-26T05:05:24;40.17;;;24.37;;
5499;SDS011;2772;42.700;23.304;2024-02-26T05:07:51;46.63;;;25.23;;
5499;SDS011;2772;42.700;23.304;2024-02-26T05:10:18;42.67;;;24.27;;
5499;SDS011;2772;42.700;23.304;2024-02-26T05:12:46;55.83;;;25.33;;
5499;SDS011;2772;42.700;23.304;2024-02-26T05:15:13;40.67;;;23.50;;
5499;SDS011;2772;42.700;23.304;2024-02-26T05:17:43;52.20;;;25.00;;
5499;SDS011;2772;42.700;23.304;2024-02-26T05:20:10;40.33;;;22.50;;
5499;SDS011;2772;42.700;23.304;2024-02-26T05:22:37;38.37;;;22.60;;
5499;SDS011;2772;42.700;23.304;2024-02-26T05:25:04;40.40;;;20.60;;
5499;SDS011;2772;42.700;23.304;2024-02-26T05:27:30;32.40;;;19.10;;
5499;SDS011;2772;42.700;23.304;2024-02-26T05:29:59;36.30;;;20.40;;
5499;SDS011;2772;42.700;23.304;2024-02-26T05:32:25;39.60;;;21.40;;
5499;SDS011;2772;42.700;23.304;2024-02-26T05:34:52;44.30;;;19.90;;
5499;SDS011;2772;42.700;23.304;2024-02-26T05:37:19;32.53;;;19.47;;
5499;SDS011;2772;42.700;23.304;2024-02-26T05:39:46;33.97;;;19.03;;
5499;SDS011;2772;42.700;23.304;2024-02-26T05:42:12;37.00;;;18.77;;
5499;SDS011;2772;42.700;23.304;2024-02-26T05:44:39;44.53;;;25.37;;
5499;SDS011;2772;42.700;23.304;2024-02-26T05:47:07;44.43;;;24.73;;
5499;SDS011;2772;42.700;23.304;2024-02-26T05:49:34;52.07;;;25.20;;
5499;SDS011;2772;42.700;23.304;2024-02-26T05:52:01;48.87;;;26.00;;
5499;SDS011;2772;42.700;23.304;2024-02-26T05:54:27;47.00;;;26.20;;
5499;SDS011;2772;42.700;23.304;2024-02-26T05:56:54;52.73;;;27.20;;
5499;SDS011;2772;42.700;23.304;2024-02-26T05:59:21;47.57;;;27.37;;
5499;SDS011;2772;42.700;23.304;2024-02-26T06:01:47;42.67;;;25.70;;
5499;SDS011;2772;42.700;23.304;2024-02-26T06:04:16;45.13;;;24.97;;
5499;SDS011;2772;42.700;23.304;2024-02-26T06:06:43;49.93;;;24.00;;
5499;SDS011;2772;42.700;23.304;2024-02-26T06:09:10;42.47;;;24.13;;
5499;SDS011;2772;42.700;23.304;2024-02-26T06:11:37;41.03;;;24.50;;
5499;SDS011;2772;42.700;23.304;2024-02-26T06:14:04;45.60;;;26.37;;
5499;SDS011;2772;42.700;23.304;2024-02-26T06:16:31;53.20;;;31.37;;
5499;SDS011;2772;42.700;23.304;2024-02-26T06:18:58;55.43;;;29.33;;
5499;SDS011;2772;42.700;23.304;2024-02-26T06:21:27;65.63;;;26.93;;
5499;SDS011;2772;42.700;23.304;2024-02-26T06:23:54;50.70;;;27.37;;
5499;SDS011;2772;42.700;23.304;2024-02-26T06:26:20;48.60;;;26.83;;
5499;SDS011;2772;42.700;23.304;2024-02-26T06:28:47;47.37;;;26.17;;
5499;SDS011;2772;42.700;23.304;2024-02-26T06:31:14;51.60;;;26.37;;
5499;SDS011;2772;42.700;23.304;2024-02-26T06:33:40;50.77;;;26.47;;
5499;SDS011;2772;42.700;23.304;2024-02-26T06:36:07;49.67;;;26.03;;
5499;SDS011;2772;42.700;23.304;2024-02-26T06:38:35;57.97;;;24.73;;
5499;SDS011;2772;42.700;23.304;2024-02-26T06:41:02;49.10;;;24.17;;
5499;SDS011;2772;42.700;23.304;2024-02-26T06:43:29;48.20;;;25.80;;
5499;SDS011;2772;42.700;23.304;2024-02-26T06:45:56;47.43;;;25.30;;
5499;SDS011;2772;42.700;23.304;2024-02-26T06:48:23;47.70;;;24.47;;
5499;SDS011;2772;42.700;23.304;2024-02-26T06:50:50;38.17;;;22.73;;
5499;SDS011;2772;42.700;23.304;2024-02-26T06:53:16;35.87;;;22.70;;
5499;SDS011;2772;42.700;23.304;2024-02-26T06:55:44;39.03;;;23.30;;
5499;SDS011;2772;42.700;23.304;2024-02-26T06:58:11;40.57;;;23.13;;
5499;SDS011;2772;42.700;23.304;2024-02-26T07:00:38;40.83;;;22.47;;
5499;SDS011;2772;42.700;23.304;2024-02-26T07:03:05;48.17;;;22.43;;
5499;SDS011;2772;42.700;23.304;2024-02-26T07:05:31;35.53;;;21.67;;
5499;SDS011;2772;42.700;23.304;2024-02-26T07:07:58;35.57;;;20.13;;
5499;SDS011;2772;42.700;23.304;2024-02-26T07:10:25;36.43;;;19.33;;
5499;SDS011;2772;42.700;23.304;2024-02-26T07:12:53;36.97;;;21.73;;
5499;SDS011;2772;42.700;23.304;2024-02-26T07:15:20;41.40;;;21.90;;
5499;SDS011;2772;42.700;23.304;2024-02-26T07:17:47;36.73;;;21.87;;
5499;SDS011;2772;42.700;23.304;2024-02-26T07:20:14;45.93;;;22.00;;
5499;SDS011;2772;42.700;23.304;2024-02-26T07:22:43;36.70;;;22.30;;
5499;SDS011;2772;42.700;23.304;2024-02-26T07:25:09;38.33;;;22.67;;
5499;SDS011;2772;42.700;23.304;2024-02-26T07:27:38;41.70;;;23.57;;
5499;SDS011;2772;42.700;23.304;2024-02-26T07:30:07;44.63;;;23.27;;
5499;SDS011;2772;42.700;23.304;2024-02-26T07:32:35;43.27;;;23.50;;
5499;SDS011;2772;42.700;23.304;2024-02-26T07:35:01;42.00;;;24.60;;
5499;SDS011;2772;42.700;23.304;2024-02-26T07:37:28;45.80;;;26.13;;
5499;SDS011;2772;42.700;23.304;2024-02-26T07:39:55;68.33;;;32.60;;
5499;SDS011;2772;42.700;23.304;2024-02-26T07:42:23;64.53;;;33.90;;
5499;SDS011;2772;42.700;23.304;2024-02-26T07:44:50;61.87;;;32.90;;
5499;SDS011;2772;42.700;23.304;2024-02-26T07:47:19;52.40;;;31.37;;
5499;SDS011;2772;42.700;23.304;2024-02-26T07:49:46;60.40;;;30.57;;
5499;SDS011;2772;42.700;23.304;2024-02-26T07:52:12;42.10;;;27.13;;
5499;SDS011;2772;42.700;23.304;2024-02-26T07:54:39;46.90;;;27.37;;
5499;SDS011;2772;42.700;23.304;2024-02-26T07:57:06;50.40;;;27.80;;
5499;SDS011;2772;42.700;23.304;2024-02-26T07:59:33;50.63;;;26.90;;
5499;SDS011;2772;42.700;23.304;2024-02-26T08:01:59;56.37;;;27.53;;
5499;SDS011;2772;42.700;23.304;2024-02-26T08:04:29;51.97;;;27.10;;
5499;SDS011;2772;42.700;23.304;2024-02-26T08:06:56;48.83;;;28.90;;
5499;SDS011;2772;42.700;23.304;2024-02-26T08:09:23;61.33;;;31.60;;
5499;SDS011;2772;42.700;23.304;2024-02-26T08:11:49;57.53;;;31.47;;
5499;SDS011;2772;42.700;23.304;2024-02-26T08:14:16;54.33;;;29.83;;
5499;SDS011;2772;42.700;23.304;2024-02-26T08:16:43;53.53;;;30.00;;
5499;SDS011;2772;42.700;23.304;2024-02-26T08:19:09;52.27;;;28.67;;
5499;SDS011;2772;42.700;23.304;2024-02-26T08:21:40;49.47;;;28.47;;
5499;SDS011;2772;42.700;23.304;2024-02-26T08:24:07;47.73;;;27.83;;
5499;SDS011;2772;42.700;23.304;2024-02-26T08:26:36;49.07;;;27.53;;
5499;SDS011;2772;42.700;23.304;2024-02-26T08:29:03;48.00;;;28.20;;
5499;SDS011;2772;42.700;23.304;2024-02-26T08:31:30;45.80;;;26.47;;
5499;SDS011;2772;42.700;23.304;2024-02-26T08:33:56;53.73;;;27.57;;
5499;SDS011;2772;42.700;23.304;2024-02-26T08:36:24;47.17;;;27.07;;
5499;SDS011;2772;42.700;23.304;2024-02-26T08:38:52;46.73;;;26.50;;
5499;SDS011;2772;42.700;23.304;2024-02-26T08:41:19;45.37;;;25.83;;
5499;SDS011;2772;42.700;23.304;2024-02-26T08:43:45;50.63;;;25.20;;
5499;SDS011;2772;42.700;23.304;2024-02-26T08:46:12;46.33;;;26.00;;
5499;SDS011;2772;42.700;23.304;2024-02-26T08:48:39;49.70;;;25.90;;
5499;SDS011;2772;42.700;23.304;2024-02-26T08:51:06;43.20;;;25.20;;
5499;SDS011;2772;42.700;23.304;2024-02-26T08:53:33;39.50;;;22.03;;
5499;SDS011;2772;42.700;23.304;2024-02-26T08:56:02;43.63;;;22.90;;
5499;SDS011;2772;42.700;23.304;2024-02-26T08:58:29;42.40;;;22.70;;
5499;SDS011;2772;42.700;23.304;2024-02-26T09:00:55;35.93;;;19.40;;
5499;SDS011;2772;42.700;23.304;2024-02-26T09:03:22;41.60;;;19.83;;
5499;SDS011;2772;42.700;23.304;2024-02-26T09:05:49;32.80;;;17.40;;
5499;SDS011;2772;42.700;23.304;2024-02-26T09:08:16;34.80;;;19.23;;
5499;SDS011;2772;42.700;23.304;2024-02-26T09:10:42;49.13;;;21.17;;
5499;SDS011;2772;42.700;23.304;2024-02-26T09:13:10;41.50;;;20.53;;
5499;SDS011;2772;42.700;23.304;2024-02-26T09:15:37;34.77;;;19.27;;
5499;SDS011;2772;42.700;23.304;2024-02-26T09:18:04;40.13;;;19.60;;
5499;SDS011;2772;42.700;23.304;2024-02-26T09:20:31;29.40;;;18.10;;
5499;SDS011;2772;42.700;23.304;2024-02-26T09:22:58;39.43;;;20.30;;
5499;SDS011;2772;42.700;23.304;2024-02-26T09:25:24;30.13;;;16.83;;
5499;SDS011;2772;42.700;23.304;2024-02-26T09:27:51;26.10;;;15.00;;
5499;SDS011;2772;42.700;23.304;2024-02-26T09:30:20;20.20;;;13.10;;
5499;SDS011;2772;42.700;23.304;2024-02-26T09:32:47;27.33;;;15.00;;
5499;SDS011;2772;42.700;23.304;2024-02-26T09:35:14;24.23;;;14.50;;
5499;SDS011;2772;42.700;23.304;2024-02-26T09:37:41;23.37;;;14.27;;
5499;SDS011;2772;42.700;23.304;2024-02-26T09:40:09;30.97;;;14.70;;
5499;SDS011;2772;42.700;23.304;2024-02-26T09:42:37;18.93;;;11.37;;
5499;SDS011;2772;42.700;23.304;2024-02-26T09:45:10;27.43;;;12.67;;
5499;SDS011;2772;42.700;23.304;2024-02-26T09:47:40;17.30;;;9.30;;
5499;SDS011;2772;42.700;23.304;2024-02-26T09:50:09;17.03;;;7.47;;
5499;SDS011;2772;42.700;23.304;2024-02-26T09:52:37;10.93;;;8.30;;
5499;SDS011;2772;42.700;23.304;2024-02-26T09:55:04;14.03;;;7.67;;
5499;SDS011;2772;42.700;23.304;2024-02-26T09:57:31;13.87;;;8.83;;
5499;SDS011;2772;42.700;23.304;2024-02-26T09:59:58;17.13;;;8.67;;
5499;SDS011;2772;42.700;23.304;2024-02-26T10:02:28;23.07;;;9.10;;
5499;SDS011;2772;42.700;23.304;2024-02-26T10:04:58;15.83;;;8.53;;
5499;SDS011;2772;42.700;23.304;2024-02-26T10:07:30;10.87;;;7.43;;
5499;SDS011;2772;42.700;23.304;2024-02-26T10:09:57;12.97;;;7.90;;
5499;SDS011;2772;42.700;23.304;2024-02-26T10:12:24;12.90;;;8.80;;
5499;SDS011;2772;42.700;23.304;2024-02-26T10:14:53;15.50;;;8.93;;
5499;SDS011;2772;42.700;23.304;2024-02-26T10:17:20;12.13;;;7.77;;
5499;SDS011;2772;42.700;23.304;2024-02-26T10:19:46;10.27;;;7.20;;
5499;SDS011;2772;42.700;23.304;2024-02-26T10:22:14;20.40;;;7.67;;
5499;SDS011;2772;42.700;23.304;2024-02-26T10:24:41;15.30;;;6.97;;
5499;SDS011;2772;42.700;23.304;2024-02-26T10:27:08;13.77;;;7.20;;
5499;SDS011;2772;42.700;23.304;2024-02-26T10:29:37;7.90;;;6.67;;
5499;SDS011;2772;42.700;23.304;2024-02-26T10:32:04;12.90;;;7.43;;
5499;SDS011;2772;42.700;23.304;2024-02-26T10:34:31;14.70;;;7.90;;
5499;SDS011;2772;42.700;23.304;2024-02-26T10:37:00;12.57;;;7.50;;
5499;SDS011;2772;42.700;23.304;2024-02-26T10:39:29;16.07;;;8.60;;
5499;SDS011;2772;42.700;23.304;2024-02-26T10:41:55;14.50;;;7.10;;
5499;SDS011;2772;42.700;23.304;2024-02-26T10:44:22;9.50;;;7.30;;
5499;SDS011;2772;42.700;23.304;2024-02-26T10:46:49;20.67;;;9.03;;
5499;SDS011;2772;42.700;23.304;2024-02-26T10:49:16;10.73;;;7.90;;
5499;SDS011;2772;42.700;23.304;2024-02-26T10:51:45;13.83;;;6.90;;
5499;SDS011;2772;42.700;23.304;2024-02-26T10:54:19;12.70;;;7.70;;
5499;SDS011;2772;42.700;23.304;2024-02-26T10:56:47;11.50;;;6.80;;
5499;SDS011;2772;42.700;23.304;2024-02-26T10:59:17;14.23;;;8.20;;
5499;SDS011;2772;42.700;23.304;2024-02-26T11:01:45;12.63;;;7.33;;
5499;SDS011;2772;42.700;23.304;2024-02-26T11:04:14;10.97;;;7.47;;
5499;SDS011;2772;42.700;23.304;2024-02-26T11:06:42;10.50;;;7.63;;
5499;SDS011;2772;42.700;23.304;2024-02-26T11:09:09;18.80;;;8.87;;
5499;SDS011;2772;42.700;23.304;2024-02-26T11:11:39;12.43;;;7.97;;
5499;SDS011;2772;42.700;23.304;2024-02-26T11:14:08;9.63;;;7.10;;
5499;SDS011;2772;42.700;23.304;2024-02-26T11:16:36;12.50;;;7.13;;
5499;SDS011;2772;42.700;23.304;2024-02-26T11:19:06;11.83;;;7.00;;
5499;SDS011;2772;42.700;23.304;2024-02-26T11:21:34;14.37;;;7.73;;
5499;SDS011;2772;42.700;23.304;2024-02-26T11:24:06;10.47;;;7.20;;
5499;SDS011;2772;42.700;23.304;2024-02-26T11:26:35;9.80;;;7.17;;
5499;SDS011;2772;42.700;23.304;2024-02-26T11:29:08;11.93;;;6.33;;
5499;SDS011;2772;42.700;23.304;2024-02-26T11:31:37;15.53;;;8.23;;
5499;SDS011;2772;42.700;23.304;2024-02-26T11:34:04;10.90;;;7.57;;
5499;SDS011;2772;42.700;23.304;2024-02-26T11:36:33;16.00;;;7.30;;
5499;SDS011;2772;42.700;23.304;2024-02-26T11:39:00;12.10;;;6.50;;
5499;SDS011;2772;42.700;23.304;2024-02-26T11:41:27;6.60;;;5.87;;
5499;SDS011;2772;42.700;23.304;2024-02-26T11:43:57;7.47;;;6.20;;
5499;SDS011;2772;42.700;23.304;2024-02-26T11:46:27;15.80;;;7.80;;
5499;SDS011;2772;42.700;23.304;2024-02-26T11:48:56;11.57;;;8.63;;
5499;SDS011;2772;42.700;23.304;2024-02-26T11:51:25;14.20;;;7.70;;
5499;SDS011;2772;42.700;23.304;2024-02-26T11:53:52;11.50;;;6.03;;
5499;SDS011;2772;42.700;23.304;2024-02-26T11:56:22;12.40;;;6.50;;
5499;SDS011;2772;42.700;23.304;2024-02-26T11:58:57;8.10;;;7.00;;
5499;SDS011;2772;42.700;23.304;2024-02-26T12:04:11;15.97;;;7.37;;
5499;SDS011;2772;42.700;23.304;2024-02-26T12:06:43;7.90;;;6.37;;
5499;SDS011;2772;42.700;23.304;2024-02-26T12:09:12;11.57;;;7.97;;
5499;SDS011;2772;42.700;23.304;2024-02-26T12:11:39;11.00;;;6.47;;
5499;SDS011;2772;42.700;23.304;2024-02-26T12:14:08;9.07;;;5.90;;
5499;SDS011;2772;42.700;23.304;2024-02-26T12:16:36;13.30;;;7.30;;
5499;SDS011;2772;42.700;23.304;2024-02-26T12:19:08;15.77;;;7.43;;
5499;SDS011;2772;42.700;23.304;2024-02-26T12:21:36;11.90;;;7.30;;
5499;SDS011;2772;42.700;23.304;2024-02-26T12:24:11;8.30;;;5.13;;
5499;SDS011;2772;42.700;23.304;2024-02-26T12:26:41;10.10;;;5.83;;
5499;SDS011;2772;42.700;23.304;2024-02-26T12:29:08;7.67;;;6.73;;
5499;SDS011;2772;42.700;23.304;2024-02-26T12:31:36;6.97;;;5.17;;
5499;SDS011;2772;42.700;23.304;2024-02-26T12:34:03;11.13;;;6.03;;
5499;SDS011;2772;42.700;23.304;2024-02-26T12:36:32;6.33;;;5.60;;
5499;SDS011;2772;42.700;23.304;2024-02-26T12:39:00;8.43;;;6.10;;
5499;SDS011;2772;42.700;23.304;2024-02-26T12:41:30;13.33;;;7.33;;
5499;SDS011;2772;42.700;23.304;2024-02-26T12:43:57;16.27;;;6.17;;
5499;SDS011;2772;42.700;23.304;2024-02-26T12:46:25;9.67;;;6.93;;
5499;SDS011;2772;42.700;23.304;2024-02-26T12:48:52;9.30;;;5.23;;
5499;SDS011;2772;42.700;23.304;2024-02-26T12:51:23;7.00;;;5.37;;
5499;SDS011;2772;42.700;23.304;2024-02-26T12:53:52;9.20;;;6.00;;
5499;SDS011;2772;42.700;23.304;2024-02-26T12:56:20;9.83;;;7.23;;
5499;SDS011;2772;42.700;23.304;2024-02-26T12:58:48;9.03;;;5.87;;
5499;SDS011;2772;42.700;23.304;2024-02-26T13:01:17;9.43;;;6.93;;
5499;SDS011;2772;42.700;23.304;2024-02-26T13:03:46;16.30;;;6.10;;
5499;SDS011;2772;42.700;23.304;2024-02-26T13:06:13;8.80;;;6.30;;
5499;SDS011;2772;42.700;23.304;2024-02-26T13:08:40;10.17;;;6.90;;
5499;SDS011;2772;42.700;23.304;2024-02-26T13:11:08;12.87;;;6.70;;
5499;SDS011;2772;42.700;23.304;2024-02-26T13:13:35;10.13;;;5.70;;
5499;SDS011;2772;42.700;23.304;2024-02-26T13:16:02;9.93;;;8.13;;
5499;SDS011;2772;42.700;23.304;2024-02-26T13:18:31;8.80;;;5.90;;
5499;SDS011;2772;42.700;23.304;2024-02-26T13:21:07;6.53;;;5.93;;
5499;SDS011;2772;42.700;23.304;2024-02-26T13:23:35;19.77;;;7.63;;
5499;SDS011;2772;42.700;23.304;2024-02-26T13:26:02;14.20;;;8.00;;
5499;SDS011;2772;42.700;23.304;2024-02-26T13:28:31;11.13;;;6.37;;
5499;SDS011;2772;42.700;23.304;2024-02-26T13:30:58;13.73;;;6.90;;
5499;SDS011;2772;42.700;23.304;2024-02-26T13:33:27;10.83;;;6.10;;
5499;SDS011;2772;42.700;23.304;2024-02-26T13:35:55;9.60;;;5.73;;
5499;SDS011;2772;42.700;23.304;2024-02-26T13:38:23;12.90;;;6.07;;
5499;SDS011;2772;42.700;23.304;2024-02-26T13:40:50;10.60;;;6.40;;
5499;SDS011;2772;42.700;23.304;2024-02-26T13:43:17;6.97;;;5.33;;
5499;SDS011;2772;42.700;23.304;2024-02-26T13:45:46;7.77;;;5.53;;
5499;SDS011;2772;42.700;23.304;2024-02-26T13:48:14;8.30;;;5.10;;
5499;SDS011;2772;42.700;23.304;2024-02-26T13:50:41;16.57;;;9.30;;
5499;SDS011;2772;42.700;23.304;2024-02-26T13:53:10;16.23;;;8.77;;
5499;SDS011;2772;42.700;23.304;2024-02-26T13:55:37;10.30;;;7.50;;
5499;SDS011;2772;42.700;23.304;2024-02-26T13:58:05;9.82;;;5.90;;
5499;SDS011;2772;42.700;23.304;2024-02-26T14:00:32;9.50;;;6.60;;
5499;SDS011;2772;42.700;23.304;2024-02-26T14:03:01;9.77;;;6.17;;
5499;SDS011;2772;42.700;23.304;2024-02-26T14:05:28;8.20;;;5.73;;
5499;SDS011;2772;42.700;23.304;2024-02-26T14:07:55;8.10;;;6.07;;
5499;SDS011;2772;42.700;23.304;2024-02-26T14:10:22;12.90;;;6.47;;
5499;SDS011;2772;42.700;23.304;2024-02-26T14:12:49;8.33;;;5.50;;
5499;SDS011;2772;42.700;23.304;2024-02-26T14:15:16;10.47;;;7.13;;
5499;SDS011;2772;42.700;23.304;2024-02-26T14:17:42;7.07;;;6.07;;
5499;SDS011;2772;42.700;23.304;2024-02-26T14:20:11;11.73;;;6.20;;
5499;SDS011;2772;42.700;23.304;2024-02-26T14:22:38;16.77;;;9.73;;
5499;SDS011;2772;42.700;23.304;2024-02-26T14:25:05;8.97;;;5.10;;
5499;SDS011;2772;42.700;23.304;2024-02-26T14:27:34;11.20;;;6.80;;
5499;SDS011;2772;42.700;23.304;2024-02-26T14:30:01;12.13;;;6.23;;
5499;SDS011;2772;42.700;23.304;2024-02-26T14:32:27;10.13;;;5.60;;
5499;SDS011;2772;42.700;23.304;2024-02-26T14:34:55;10.17;;;5.07;;
5499;SDS011;2772;42.700;23.304;2024-02-26T14:37:23;7.60;;;5.27;;
5499;SDS011;2772;42.700;23.304;2024-02-26T14:39:50;7.00;;;5.30;;
5499;SDS011;2772;42.700;23.304;2024-02-26T14:42:17;20.20;;;6.63;;
5499;SDS011;2772;42.700;23.304;2024-02-26T14:44:44;10.67;;;5.83;;